Latest Weather Observations for Outer Harbor (Black Pole)

IDS60801

Issued at 8:11 pm CDT Sunday 24 January 2021 (issued every 10 minutes, with the page automatically refreshed every 10 minutes)

About weather observations | Map of weather stations | Latest weather observations for SA | Other Formats
Station Details ID: 023052 Name: BLACK POLE Lat: -34.73 Lon: 138.47 Height: 6.27 m
Data from the previous 72 hours. | See also: Recent months for locations in South Australia
Date/Time
CDT
Temp
°C
App
Temp
°C
Dew
Point
°C
Rel
Hum
%
Delta-T
°C
Wind Press
QNH
hPa
Press
MSL
hPa
Rain since
9am
mm
Dir  Spd
km/h
Gust
km/h
Spd
kts
Gust
kts
24/08:00pm - - - - - S 19 20 10 11 - - -
24/07:30pm - - - - - S 22 24 12 13 - - -
24/07:00pm - - - - - SSW 26 30 14 16 - - -
24/06:30pm - - - - - SW 26 30 14 16 - - -
24/06:00pm - - - - - WNW 22 37 12 20 - - -
24/05:30pm - - - - - WNW 19 20 10 11 - - -
24/05:00pm - - - - - WNW 19 20 10 11 - - -
24/04:30pm - - - - - WNW 20 22 11 12 - - -
24/04:00pm - - - - - NW 22 24 12 13 - - -
24/03:30pm - - - - - WNW 22 28 12 15 - - -
24/03:00pm - - - - - WNW 22 26 12 14 - - -
24/02:30pm - - - - - WNW 22 26 12 14 - - -
24/02:00pm - - - - - WNW 24 28 13 15 - - -
24/01:30pm - - - - - WNW 24 26 13 14 - - -
24/01:00pm - - - - - WNW 20 24 11 13 - - -
24/12:30pm - - - - - WNW 20 24 11 13 - - -
24/12:00pm - - - - - WNW 19 20 10 11 - - -
24/11:30am - - - - - NW 20 22 11 12 - - -
24/11:00am - - - - - N 11 19 6 10 - - -
24/10:30am - - - - - NE 22 24 12 13 - - -
24/10:00am - - - - - NE 22 24 12 13 - - -
24/09:30am - - - - - NE 24 33 13 18 - - -
24/09:00am - - - - - NE 26 33 14 18 - - -
24/08:30am - - - - - NE 30 35 16 19 - - -
24/08:00am - - - - - NE 28 32 15 17 - - -
24/07:30am - - - - - NE 30 35 16 19 - - -
24/07:00am - - - - - NE 32 37 17 20 - - -
24/06:30am - - - - - NE 30 33 16 18 - - -
24/06:00am - - - - - NE 30 35 16 19 - - -
24/05:30am - - - - - NE 28 33 15 18 - - -
24/05:00am - - - - - NE 26 32 14 17 - - -
24/04:30am - - - - - ENE 11 13 6 7 - - -
24/04:00am - - - - - E 13 13 7 7 - - -
24/03:30am - - - - - ENE 17 19 9 10 - - -
24/03:00am - - - - - ENE 17 19 9 10 - - -
24/02:30am - - - - - ENE 13 17 7 9 - - -
24/02:00am - - - - - NE 26 32 14 17 - - -
24/01:30am - - - - - NE 11 17 6 9 - - -
24/01:00am - - - - - ENE 13 15 7 8 - - -
24/12:30am - - - - - E 15 17 8 9 - - -
24/12:00am - - - - - E 9 13 5 7 - - -
 
Date/Time
CDT
Temp
°C
App
Temp
°C
Dew
Point
°C
Rel
Hum
%
Delta-T
°C
Wind Press
QNH
hPa
Press
MSL
hPa
Rain since
9am
mm
Dir  Spd
km/h
Gust
km/h
Spd
kts
Gust
kts
23/11:30pm - - - - - E 13 17 7 9 - - -
23/11:00pm - - - - - E 7 19 4 10 - - -
23/10:30pm - - - - - E 9 11 5 6 - - -
23/10:00pm - - - - - ESE 11 13 6 7 - - -
23/09:30pm - - - - - ESE 15 17 8 9 - - -
23/09:00pm - - - - - ESE 17 19 9 10 - - -
23/08:30pm - - - - - S 20 26 11 14 - - -
23/08:00pm - - - - - S 24 28 13 15 - - -
23/07:30pm - - - - - S 22 26 12 14 - - -
23/07:00pm - - - - - S 28 33 15 18 - - -
23/06:30pm - - - - - S 22 24 12 13 - - -
23/06:00pm - - - - - S 24 26 13 14 - - -
23/05:30pm - - - - - S 24 26 13 14 - - -
23/05:00pm - - - - - S 22 24 12 13 - - -
23/04:30pm - - - - - S 24 26 13 14 - - -
23/04:00pm - - - - - S 22 26 12 14 - - -
23/03:30pm - - - - - S 22 24 12 13 - - -
23/03:00pm - - - - - S 26 28 14 15 - - -
23/02:30pm - - - - - SSW 26 28 14 15 - - -
23/02:00pm - - - - - SSW 22 26 12 14 - - -
23/01:30pm - - - - - SSW 22 26 12 14 - - -
23/01:00pm - - - - - SSW 19 20 10 11 - - -
23/12:30pm - - - - - SSW 11 19 6 10 - - -
23/12:00pm - - - - - SE 9 11 5 6 - - -
23/11:30am - - - - - ESE 6 9 3 5 - - -
23/11:00am - - - - - ENE 17 20 9 11 - - -
23/10:30am - - - - - NE 19 24 10 13 - - -
23/10:00am - - - - - NE 22 24 12 13 - - -
23/09:30am - - - - - NE 20 24 11 13 - - -
23/09:00am - - - - - NE 13 15 7 8 - - -
23/08:30am - - - - - NE 9 13 5 7 - - -
23/08:00am - - - - - NE 13 15 7 8 - - -
23/07:30am - - - - - NE 15 19 8 10 - - -
23/07:00am - - - - - NE 13 15 7 8 - - -
23/06:30am - - - - - NE 13 15 7 8 - - -
23/06:00am - - - - - NE 11 15 6 8 - - -
23/05:30am - - - - - NE 9 11 5 6 - - -
23/05:00am - - - - - ENE 9 11 5 6 - - -
23/04:30am - - - - - NE 9 11 5 6 - - -
23/04:00am - - - - - NE 9 15 5 8 - - -
23/03:30am - - - - - NNE 7 9 4 5 - - -
23/03:00am - - - - - NW 6 7 3 4 - - -
23/02:30am - - - - - N 9 13 5 7 - - -
23/02:00am - - - - - N 11 13 6 7 - - -
23/01:30am - - - - - N 9 11 5 6 - - -
23/01:00am - - - - - NNW 9 11 5 6 - - -
23/12:30am - - - - - N 6 6 3 3 - - -
23/12:00am - - - - - NE 6 6 3 3 - - -
 
Date/Time
CDT
Temp
°C
App
Temp
°C
Dew
Point
°C
Rel
Hum
%
Delta-T
°C
Wind Press
QNH
hPa
Press
MSL
hPa
Rain since
9am
mm
Dir  Spd
km/h
Gust
km/h
Spd
kts
Gust
kts
22/11:30pm - - - - - SE 7 9 4 5 - - -
22/11:00pm - - - - - S 6 9 3 5 - - -
22/10:30pm - - - - - S 13 15 7 8 - - -
22/10:00pm - - - - - S 17 19 9 10 - - -
22/09:30pm - - - - - S 20 24 11 13 - - -
22/09:00pm - - - - - SSW 22 28 12 15 - - -
22/08:30pm - - - - - SSW 22 24 12 13 - - -
22/08:00pm - - - - - SSW 22 26 12 14 - - -
22/07:30pm - - - - - SSW 24 28 13 15 - - -
22/07:00pm - - - - - SSW 26 32 14 17 - - -
22/06:30pm - - - - - SSW 24 28 13 15 - - -
22/06:00pm - - - - - SSW 24 30 13 16 - - -
22/05:30pm - - - - - SSW 26 30 14 16 - - -
22/05:00pm - - - - - SSW 26 30 14 16 - - -
22/04:30pm - - - - - SSW 22 28 12 15 - - -
22/04:00pm - - - - - SSW 26 32 14 17 - - -
22/03:30pm - - - - - SSW 24 32 13 17 - - -
22/03:00pm - - - - - SSW 26 30 14 16 - - -
22/02:30pm - - - - - SSW 26 30 14 16 - - -
22/02:00pm - - - - - SSW 24 28 13 15 - - -
22/01:30pm - - - - - SW 20 24 11 13 - - -
22/01:00pm - - - - - SW 20 22 11 12 - - -
22/12:30pm - - - - - SW 20 24 11 13 - - -
22/12:00pm - - - - - SW 17 20 9 11 - - -
22/11:30am - - - - - SW 13 15 7 8 - - -
22/11:00am - - - - - WSW 11 13 6 7 - - -
22/10:30am - - - - - W 11 13 6 7 - - -
22/10:00am - - - - - W 4 6 2 3 - - -
22/09:30am - - - - - N 7 11 4 6 - - -
22/09:00am - - - - - N 6 7 3 4 - - -
22/08:30am - - - - - NNE 4 6 2 3 - - -
22/08:00am - - - - - NNE 9 13 5 7 - - -
22/07:30am - - - - - NNE 9 13 5 7 - - -
22/07:00am - - - - - NE 11 13 6 7 - - -
22/06:30am - - - - - NNW 7 9 4 5 - - -
22/06:00am - - - - - NNW 4 7 2 4 - - -
22/05:30am - - - - - NNW 4 6 2 3 - - -
22/05:00am - - - - - NNW 6 9 3 5 - - -
22/04:30am - - - - - NE 9 13 5 7 - - -
22/04:00am - - - - - NE 11 13 6 7 - - -
22/03:30am - - - - - NE 9 11 5 6 - - -
22/03:00am - - - - - N 13 17 7 9 - - -
22/02:30am - - - - - NW 11 13 6 7 - - -
22/02:00am - - - - - NNW 7 11 4 6 - - -
22/01:30am - - - - - NNE 7 9 4 5 - - -
22/01:00am - - - - - E 6 6 3 3 - - -
22/12:30am - - - - - S 9 13 5 7 - - -
22/12:00am - - - - - S 11 15 6 8 - - -
 
Date/Time
CDT
Temp
°C
App
Temp
°C
Dew
Point
°C
Rel
Hum
%
Delta-T
°C
Wind Press
QNH
hPa
Press
MSL
hPa
Rain since
9am
mm
Dir  Spd
km/h
Gust
km/h
Spd
kts
Gust
kts
21/11:30pm - - - - - S 17 20 9 11 - - -
21/11:00pm - - - - - S 17 20 9 11 - - -
21/10:30pm - - - - - SSE 15 17 8 9 - - -
21/10:00pm - - - - - S 19 20 10 11 - - -
21/09:30pm - - - - - S 19 22 10 12 - - -
21/09:00pm - - - - - S 22 24 12 13 - - -
21/08:30pm - - - - - SSW 11 15 6 8 - - -

Other formats

Comma delimited format used in spreadsheet applications
http://www.bom.gov.au/fwo/IDS60801/IDS60801.95675.axf

JavaScript Object Notation format (JSON) in row-major order
http://www.bom.gov.au/fwo/IDS60801/IDS60801.95675.json

Data quality

Most of these data are generated automatically and are frequently updated. Quality checks on data are not normally performed. It is possible for incorrect values to appear. Refer to information at About Latest Weather Observations and please check the disclaimer before using these data.